createdAt,value
2022-08-20T00:21:58.194Z,32.73
2022-08-20T00:52:01.356Z,30.85
2022-08-20T01:22:05.550Z,33.13
2022-08-20T01:52:08.478Z,30.03
2022-08-20T02:22:12.260Z,27.73
2022-08-20T02:52:15.165Z,29.23
2022-08-20T03:22:19.556Z,26.60
2022-08-20T03:52:22.319Z,26.38
2022-08-20T04:22:26.711Z,31.10
2022-08-20T04:52:29.526Z,29.15
2022-08-20T05:22:32.806Z,32.53
2022-08-20T05:52:35.541Z,35.40
2022-08-20T06:22:39.191Z,34.53
2022-08-20T06:52:52.535Z,28.35
2022-08-20T07:22:56.740Z,27.07
2022-08-20T07:52:59.646Z,26.90
2022-08-20T08:23:03.518Z,23.73
2022-08-20T08:53:06.246Z,22.88
2022-08-20T09:23:14.054Z,23.45
2022-08-20T10:23:20.068Z,22.27
2022-08-20T10:53:22.955Z,22.50
2022-08-20T11:23:27.666Z,23.58
2022-08-20T11:53:30.393Z,21.53
2022-08-20T12:23:36.044Z,19.73
2022-08-20T12:53:38.892Z,18.67
2022-08-20T13:23:42.578Z,18.87
2022-08-20T13:53:45.317Z,19.65
2022-08-20T14:23:51.281Z,19.98
2022-08-20T14:53:54.081Z,19.00
2022-08-20T15:23:58.090Z,13.70
2022-08-20T15:54:00.828Z,12.77
2022-08-20T16:24:04.535Z,9.83
2022-08-20T16:54:07.299Z,14.20
2022-08-20T17:24:16.724Z,12.60
2022-08-20T17:54:19.997Z,9.53
2022-08-20T18:24:24.009Z,9.17
2022-08-20T18:54:26.903Z,8.45
2022-08-20T19:24:31.086Z,6.33
2022-08-20T19:54:34.099Z,7.77
2022-08-20T20:24:38.210Z,7.23
2022-08-20T20:54:41.002Z,7.03
2022-08-20T21:24:45.739Z,9.13
2022-08-20T21:54:48.591Z,7.98
2022-08-20T22:24:52.389Z,7.80
2022-08-20T22:54:55.737Z,9.27
2022-08-20T23:25:00.956Z,6.93
2022-08-20T23:55:05.130Z,7.13
